sensor_id;sensor_type;location;lat;lon;timestamp;temperature;humidity
15765;DHT22;7983;50.744;7.086;2023-07-08T00:01:19;22.60;59.20
15765;DHT22;7983;50.744;7.086;2023-07-08T00:03:45;22.50;59.40
15765;DHT22;7983;50.744;7.086;2023-07-08T00:06:22;22.50;59.40
15765;DHT22;7983;50.744;7.086;2023-07-08T00:08:48;22.40;60.70
15765;DHT22;7983;50.744;7.086;2023-07-08T00:11:17;22.40;59.80
15765;DHT22;7983;50.744;7.086;2023-07-08T00:13:45;22.30;60.00
15765;DHT22;7983;50.744;7.086;2023-07-08T00:16:19;22.30;60.80
15765;DHT22;7983;50.744;7.086;2023-07-08T00:18:47;22.20;61.20
15765;DHT22;7983;50.744;7.086;2023-07-08T00:21:17;22.20;60.90
15765;DHT22;7983;50.744;7.086;2023-07-08T00:23:50;22.20;61.30
15765;DHT22;7983;50.744;7.086;2023-07-08T00:26:23;22.10;62.50
15765;DHT22;7983;50.744;7.086;2023-07-08T00:28:52;22.10;62.10
15765;DHT22;7983;50.744;7.086;2023-07-08T00:31:21;22.10;62.00
15765;DHT22;7983;50.744;7.086;2023-07-08T00:33:50;22.00;62.00
15765;DHT22;7983;50.744;7.086;2023-07-08T00:36:16;22.00;62.30
15765;DHT22;7983;50.744;7.086;2023-07-08T00:38:43;22.00;62.50
15765;DHT22;7983;50.744;7.086;2023-07-08T00:41:21;22.00;62.80
15765;DHT22;7983;50.744;7.086;2023-07-08T00:43:49;21.90;63.40
15765;DHT22;7983;50.744;7.086;2023-07-08T00:52:29;21.90;65.30
15765;DHT22;7983;50.744;7.086;2023-07-08T00:55:04;21.90;65.30
15765;DHT22;7983;50.744;7.086;2023-07-08T00:57:35;21.90;64.40
15765;DHT22;7983;50.744;7.086;2023-07-08T01:00:05;21.80;65.20
15765;DHT22;7983;50.744;7.086;2023-07-08T01:02:39;21.80;64.30
15765;DHT22;7983;50.744;7.086;2023-07-08T01:05:12;21.80;65.30
15765;DHT22;7983;50.744;7.086;2023-07-08T01:07:44;21.80;64.90
15765;DHT22;7983;50.744;7.086;2023-07-08T01:10:20;21.70;65.80
15765;DHT22;7983;50.744;7.086;2023-07-08T01:12:53;21.70;66.40
15765;DHT22;7983;50.744;7.086;2023-07-08T01:15:22;21.70;66.50
15765;DHT22;7983;50.744;7.086;2023-07-08T01:17:49;21.70;66.40
15765;DHT22;7983;50.744;7.086;2023-07-08T01:20:21;21.70;67.20
15765;DHT22;7983;50.744;7.086;2023-07-08T01:22:49;21.70;66.90
15765;DHT22;7983;50.744;7.086;2023-07-08T01:25:15;21.70;67.30
15765;DHT22;7983;50.744;7.086;2023-07-08T01:27:48;21.60;67.40
15765;DHT22;7983;50.744;7.086;2023-07-08T01:30:19;21.60;68.00
15765;DHT22;7983;50.744;7.086;2023-07-08T01:32:50;21.60;68.50
15765;DHT22;7983;50.744;7.086;2023-07-08T01:35:17;21.60;69.20
15765;DHT22;7983;50.744;7.086;2023-07-08T01:37:51;21.60;68.80
15765;DHT22;7983;50.744;7.086;2023-07-08T01:40:30;21.50;69.70
15765;DHT22;7983;50.744;7.086;2023-07-08T01:42:59;21.50;70.80
15765;DHT22;7983;50.744;7.086;2023-07-08T01:45:28;21.50;70.10
15765;DHT22;7983;50.744;7.086;2023-07-08T01:48:11;21.50;69.90
15765;DHT22;7983;50.744;7.086;2023-07-08T01:50:49;21.40;71.40
15765;DHT22;7983;50.744;7.086;2023-07-08T01:53:20;21.40;71.20
15765;DHT22;7983;50.744;7.086;2023-07-08T01:55:46;21.40;70.40
15765;DHT22;7983;50.744;7.086;2023-07-08T01:58:14;21.30;70.30
15765;DHT22;7983;50.744;7.086;2023-07-08T02:00:42;21.30;70.60
15765;DHT22;7983;50.744;7.086;2023-07-08T02:03:11;21.30;71.70
15765;DHT22;7983;50.744;7.086;2023-07-08T02:05:36;21.20;71.60
15765;DHT22;7983;50.744;7.086;2023-07-08T02:08:02;21.20;71.30
15765;DHT22;7983;50.744;7.086;2023-07-08T02:10:30;21.10;71.50
15765;DHT22;7983;50.744;7.086;2023-07-08T02:12:55;21.10;71.80
15765;DHT22;7983;50.744;7.086;2023-07-08T02:15:26;21.10;72.20
15765;DHT22;7983;50.744;7.086;2023-07-08T02:17:52;21.00;73.00
15765;DHT22;7983;50.744;7.086;2023-07-08T02:20:18;21.00;72.40
15765;DHT22;7983;50.744;7.086;2023-07-08T02:22:43;21.00;72.50
15765;DHT22;7983;50.744;7.086;2023-07-08T02:25:09;20.90;72.60
15765;DHT22;7983;50.744;7.086;2023-07-08T02:27:36;20.90;72.90
15765;DHT22;7983;50.744;7.086;2023-07-08T02:30:01;20.90;73.20
15765;DHT22;7983;50.744;7.086;2023-07-08T02:32:27;20.90;73.50
15765;DHT22;7983;50.744;7.086;2023-07-08T02:34:53;20.80;73.60
15765;DHT22;7983;50.744;7.086;2023-07-08T02:37:19;20.80;73.80
15765;DHT22;7983;50.744;7.086;2023-07-08T02:39:47;20.80;74.00
15765;DHT22;7983;50.744;7.086;2023-07-08T02:42:12;20.70;74.30
15765;DHT22;7983;50.744;7.086;2023-07-08T02:44:40;20.70;74.60
15765;DHT22;7983;50.744;7.086;2023-07-08T02:47:08;20.70;74.80
15765;DHT22;7983;50.744;7.086;2023-07-08T02:49:34;20.60;75.70
15765;DHT22;7983;50.744;7.086;2023-07-08T02:51:59;20.60;75.40
15765;DHT22;7983;50.744;7.086;2023-07-08T02:54:25;20.60;75.80
15765;DHT22;7983;50.744;7.086;2023-07-08T02:56:54;20.50;76.10
15765;DHT22;7983;50.744;7.086;2023-07-08T02:59:22;20.50;76.60
15765;DHT22;7983;50.744;7.086;2023-07-08T03:01:47;20.50;77.50
15765;DHT22;7983;50.744;7.086;2023-07-08T03:04:18;20.40;77.30
15765;DHT22;7983;50.744;7.086;2023-07-08T03:06:50;20.40;78.20
15765;DHT22;7983;50.744;7.086;2023-07-08T03:09:19;20.30;78.60
15765;DHT22;7983;50.744;7.086;2023-07-08T03:11:47;20.30;78.80
15765;DHT22;7983;50.744;7.086;2023-07-08T03:14:12;20.30;79.10
15765;DHT22;7983;50.744;7.086;2023-07-08T03:16:38;20.30;79.00
15765;DHT22;7983;50.744;7.086;2023-07-08T03:19:04;20.30;79.40
15765;DHT22;7983;50.744;7.086;2023-07-08T03:21:33;20.30;79.70
15765;DHT22;7983;50.744;7.086;2023-07-08T03:23:58;20.20;80.00
15765;DHT22;7983;50.744;7.086;2023-07-08T03:26:26;20.20;80.20
15765;DHT22;7983;50.744;7.086;2023-07-08T03:28:54;20.20;81.10
15765;DHT22;7983;50.744;7.086;2023-07-08T03:31:22;20.20;81.00
15765;DHT22;7983;50.744;7.086;2023-07-08T03:33:47;20.20;81.50
15765;DHT22;7983;50.744;7.086;2023-07-08T03:36:18;20.20;81.80
15765;DHT22;7983;50.744;7.086;2023-07-08T03:38:52;20.20;82.70
15765;DHT22;7983;50.744;7.086;2023-07-08T03:41:19;20.10;82.90
15765;DHT22;7983;50.744;7.086;2023-07-08T03:43:47;20.10;82.50
15765;DHT22;7983;50.744;7.086;2023-07-08T03:46:19;20.10;82.70
15765;DHT22;7983;50.744;7.086;2023-07-08T03:48:46;20.10;83.20
15765;DHT22;7983;50.744;7.086;2023-07-08T03:51:21;20.10;83.50
15765;DHT22;7983;50.744;7.086;2023-07-08T03:53:50;20.10;85.00
15765;DHT22;7983;50.744;7.086;2023-07-08T03:56:16;20.10;84.10
15765;DHT22;7983;50.744;7.086;2023-07-08T03:58:42;20.10;84.00
15765;DHT22;7983;50.744;7.086;2023-07-08T04:01:22;20.20;84.20
15765;DHT22;7983;50.744;7.086;2023-07-08T04:03:56;20.20;85.70
15765;DHT22;7983;50.744;7.086;2023-07-08T04:06:25;20.20;85.00
15765;DHT22;7983;50.744;7.086;2023-07-08T04:08:54;20.20;84.50
15765;DHT22;7983;50.744;7.086;2023-07-08T04:11:23;20.20;84.80
15765;DHT22;7983;50.744;7.086;2023-07-08T04:13:52;20.30;85.00
15765;DHT22;7983;50.744;7.086;2023-07-08T04:16:25;20.30;85.00
15765;DHT22;7983;50.744;7.086;2023-07-08T04:18:55;20.30;86.10
15765;DHT22;7983;50.744;7.086;2023-07-08T04:21:24;20.30;85.40
15765;DHT22;7983;50.744;7.086;2023-07-08T04:23:51;20.30;85.60
15765;DHT22;7983;50.744;7.086;2023-07-08T04:26:23;20.30;85.50
15765;DHT22;7983;50.744;7.086;2023-07-08T04:28:50;20.40;85.80
15765;DHT22;7983;50.744;7.086;2023-07-08T04:31:15;20.40;85.60
15765;DHT22;7983;50.744;7.086;2023-07-08T04:33:43;20.40;85.50
15765;DHT22;7983;50.744;7.086;2023-07-08T04:36:14;20.40;85.90
15765;DHT22;7983;50.744;7.086;2023-07-08T04:38:40;20.40;85.80
15765;DHT22;7983;50.744;7.086;2023-07-08T04:41:07;20.40;85.60
15765;DHT22;7983;50.744;7.086;2023-07-08T04:43:32;20.40;85.70
15765;DHT22;7983;50.744;7.086;2023-07-08T04:46:00;20.40;85.90
15765;DHT22;7983;50.744;7.086;2023-07-08T04:48:30;20.50;86.10
15765;DHT22;7983;50.744;7.086;2023-07-08T04:51:03;20.50;86.20
15765;DHT22;7983;50.744;7.086;2023-07-08T04:53:30;20.50;86.80
15765;DHT22;7983;50.744;7.086;2023-07-08T04:55:56;20.50;86.70
15765;DHT22;7983;50.744;7.086;2023-07-08T04:58:24;20.50;86.70
15765;DHT22;7983;50.744;7.086;2023-07-08T05:00:53;20.60;87.20
15765;DHT22;7983;50.744;7.086;2023-07-08T05:03:18;20.60;87.30
15765;DHT22;7983;50.744;7.086;2023-07-08T05:05:46;20.60;88.00
15765;DHT22;7983;50.744;7.086;2023-07-08T05:08:16;20.60;87.50
15765;DHT22;7983;50.744;7.086;2023-07-08T05:10:42;20.70;88.10
15765;DHT22;7983;50.744;7.086;2023-07-08T05:13:10;20.70;88.20
15765;DHT22;7983;50.744;7.086;2023-07-08T05:15:38;20.80;88.20
15765;DHT22;7983;50.744;7.086;2023-07-08T05:18:04;20.90;88.70
15765;DHT22;7983;50.744;7.086;2023-07-08T05:20:29;21.00;88.50
15765;DHT22;7983;50.744;7.086;2023-07-08T05:22:56;21.00;88.30
15765;DHT22;7983;50.744;7.086;2023-07-08T05:25:24;21.10;88.20
15765;DHT22;7983;50.744;7.086;2023-07-08T05:27:50;21.20;88.00
15765;DHT22;7983;50.744;7.086;2023-07-08T05:30:20;21.30;88.10
15765;DHT22;7983;50.744;7.086;2023-07-08T05:32:45;21.30;88.10
15765;DHT22;7983;50.744;7.086;2023-07-08T05:35:11;21.40;88.10
15765;DHT22;7983;50.744;7.086;2023-07-08T05:37:37;21.50;88.30
15765;DHT22;7983;50.744;7.086;2023-07-08T05:40:06;21.60;88.70
15765;DHT22;7983;50.744;7.086;2023-07-08T05:42:32;21.70;88.90
15765;DHT22;7983;50.744;7.086;2023-07-08T05:44:58;21.70;88.90
15765;DHT22;7983;50.744;7.086;2023-07-08T05:47:23;21.80;89.00
15765;DHT22;7983;50.744;7.086;2023-07-08T05:49:52;22.00;89.30
15765;DHT22;7983;50.744;7.086;2023-07-08T05:52:17;22.00;89.30
15765;DHT22;7983;50.744;7.086;2023-07-08T05:54:43;22.20;89.10
15765;DHT22;7983;50.744;7.086;2023-07-08T05:57:10;22.20;88.80
15765;DHT22;7983;50.744;7.086;2023-07-08T05:59:37;22.30;88.80
15765;DHT22;7983;50.744;7.086;2023-07-08T06:02:04;22.40;88.80
15765;DHT22;7983;50.744;7.086;2023-07-08T06:04:32;22.40;88.60
15765;DHT22;7983;50.744;7.086;2023-07-08T06:06:58;22.50;88.50
15765;DHT22;7983;50.744;7.086;2023-07-08T06:09:23;22.50;88.20
15765;DHT22;7983;50.744;7.086;2023-07-08T06:11:49;22.60;88.00
15765;DHT22;7983;50.744;7.086;2023-07-08T06:14:17;22.60;87.90
15765;DHT22;7983;50.744;7.086;2023-07-08T06:16:43;22.70;87.90
15765;DHT22;7983;50.744;7.086;2023-07-08T06:19:09;22.70;87.70
15765;DHT22;7983;50.744;7.086;2023-07-08T06:21:34;22.70;87.70
15765;DHT22;7983;50.744;7.086;2023-07-08T06:24:00;22.80;87.70
15765;DHT22;7983;50.744;7.086;2023-07-08T06:26:26;22.90;87.30
15765;DHT22;7983;50.744;7.086;2023-07-08T06:28:51;22.90;87.90
15765;DHT22;7983;50.744;7.086;2023-07-08T06:31:19;23.00;87.30
15765;DHT22;7983;50.744;7.086;2023-07-08T06:33:47;23.00;87.20
15765;DHT22;7983;50.744;7.086;2023-07-08T06:36:13;23.10;87.20
15765;DHT22;7983;50.744;7.086;2023-07-08T06:38:38;23.20;86.90
15765;DHT22;7983;50.744;7.086;2023-07-08T06:41:04;23.30;87.30
15765;DHT22;7983;50.744;7.086;2023-07-08T06:43:30;23.30;86.40
15765;DHT22;7983;50.744;7.086;2023-07-08T06:45:55;23.40;86.30
15765;DHT22;7983;50.744;7.086;2023-07-08T06:48:23;23.50;86.30
15765;DHT22;7983;50.744;7.086;2023-07-08T06:50:49;23.60;86.10
15765;DHT22;7983;50.744;7.086;2023-07-08T06:53:17;23.60;86.00
15765;DHT22;7983;50.744;7.086;2023-07-08T06:55:46;23.60;85.60
15765;DHT22;7983;50.744;7.086;2023-07-08T06:58:12;23.70;86.10
15765;DHT22;7983;50.744;7.086;2023-07-08T07:00:40;23.70;85.40
15765;DHT22;7983;50.744;7.086;2023-07-08T07:03:06;23.80;85.10
15765;DHT22;7983;50.744;7.086;2023-07-08T07:05:34;23.90;85.10
15765;DHT22;7983;50.744;7.086;2023-07-08T07:07:59;23.90;85.00
15765;DHT22;7983;50.744;7.086;2023-07-08T07:10:27;24.00;85.10
15765;DHT22;7983;50.744;7.086;2023-07-08T07:12:58;24.10;85.20
15765;DHT22;7983;50.744;7.086;2023-07-08T07:15:24;24.20;85.10
15765;DHT22;7983;50.744;7.086;2023-07-08T07:17:53;24.30;85.40
15765;DHT22;7983;50.744;7.086;2023-07-08T07:20:19;24.40;85.40
15765;DHT22;7983;50.744;7.086;2023-07-08T07:22:44;24.50;85.00
15765;DHT22;7983;50.744;7.086;2023-07-08T07:25:10;24.60;84.90
15765;DHT22;7983;50.744;7.086;2023-07-08T07:27:36;24.70;84.70
15765;DHT22;7983;50.744;7.086;2023-07-08T07:30:04;24.80;84.50
15765;DHT22;7983;50.744;7.086;2023-07-08T07:32:38;24.90;84.00
15765;DHT22;7983;50.744;7.086;2023-07-08T07:35:04;24.90;83.00
15765;DHT22;7983;50.744;7.086;2023-07-08T07:37:30;25.00;82.90
15765;DHT22;7983;50.744;7.086;2023-07-08T07:39:58;25.10;82.20
15765;DHT22;7983;50.744;7.086;2023-07-08T07:42:23;25.20;81.70
15765;DHT22;7983;50.744;7.086;2023-07-08T07:44:52;25.30;81.30
15765;DHT22;7983;50.744;7.086;2023-07-08T07:47:17;25.40;81.00
15765;DHT22;7983;50.744;7.086;2023-07-08T07:49:43;25.50;80.50
15765;DHT22;7983;50.744;7.086;2023-07-08T07:52:09;25.60;80.20
15765;DHT22;7983;50.744;7.086;2023-07-08T07:54:37;25.70;80.00
15765;DHT22;7983;50.744;7.086;2023-07-08T07:57:03;25.70;79.70
15765;DHT22;7983;50.744;7.086;2023-07-08T07:59:28;25.80;79.00
15765;DHT22;7983;50.744;7.086;2023-07-08T08:01:54;25.90;78.60
15765;DHT22;7983;50.744;7.086;2023-07-08T08:04:19;26.00;77.80
15765;DHT22;7983;50.744;7.086;2023-07-08T08:06:45;26.10;77.40
15765;DHT22;7983;50.744;7.086;2023-07-08T08:09:13;26.20;76.00
15765;DHT22;7983;50.744;7.086;2023-07-08T08:11:39;26.20;75.50
15765;DHT22;7983;50.744;7.086;2023-07-08T08:14:04;26.40;75.90
15765;DHT22;7983;50.744;7.086;2023-07-08T08:16:33;26.40;74.20
15765;DHT22;7983;50.744;7.086;2023-07-08T08:19:00;26.50;72.80
15765;DHT22;7983;50.744;7.086;2023-07-08T08:21:26;26.60;73.50
15765;DHT22;7983;50.744;7.086;2023-07-08T08:23:54;26.70;73.30
15765;DHT22;7983;50.744;7.086;2023-07-08T08:26:20;26.80;73.20
15765;DHT22;7983;50.744;7.086;2023-07-08T08:28:45;26.90;73.40
15765;DHT22;7983;50.744;7.086;2023-07-08T08:31:11;27.00;73.40
15765;DHT22;7983;50.744;7.086;2023-07-08T08:33:36;27.10;72.30
15765;DHT22;7983;50.744;7.086;2023-07-08T08:36:04;27.20;71.60
15765;DHT22;7983;50.744;7.086;2023-07-08T08:38:30;27.30;71.80
15765;DHT22;7983;50.744;7.086;2023-07-08T08:40:58;27.40;72.00
15765;DHT22;7983;50.744;7.086;2023-07-08T08:43:37;27.50;70.80
15765;DHT22;7983;50.744;7.086;2023-07-08T08:48:40;27.70;70.20
15765;DHT22;7983;50.744;7.086;2023-07-08T08:51:11;27.80;69.10
15765;DHT22;7983;50.744;7.086;2023-07-08T08:53:40;27.90;68.80
15765;DHT22;7983;50.744;7.086;2023-07-08T08:56:22;28.10;69.80
15765;DHT22;7983;50.744;7.086;2023-07-08T09:01:37;28.30;69.70
15765;DHT22;7983;50.744;7.086;2023-07-08T09:04:29;28.40;68.90
15765;DHT22;7983;50.744;7.086;2023-07-08T09:07:04;28.60;67.60
15765;DHT22;7983;50.744;7.086;2023-07-08T09:09:43;28.70;67.60
15765;DHT22;7983;50.744;7.086;2023-07-08T09:12:17;28.80;66.70
15765;DHT22;7983;50.744;7.086;2023-07-08T09:14:49;28.90;65.70
15765;DHT22;7983;50.744;7.086;2023-07-08T09:17:29;29.00;65.60
15765;DHT22;7983;50.744;7.086;2023-07-08T09:20:12;29.10;64.80
15765;DHT22;7983;50.744;7.086;2023-07-08T09:25:33;29.40;62.90
15765;DHT22;7983;50.744;7.086;2023-07-08T09:28:04;29.40;63.00
15765;DHT22;7983;50.744;7.086;2023-07-08T09:30:30;29.60;65.10
15765;DHT22;7983;50.744;7.086;2023-07-08T09:33:05;29.60;65.10
15765;DHT22;7983;50.744;7.086;2023-07-08T09:35:45;29.70;64.10
15765;DHT22;7983;50.744;7.086;2023-07-08T09:38:18;29.90;63.00
15765;DHT22;7983;50.744;7.086;2023-07-08T09:40:51;30.00;63.20
15765;DHT22;7983;50.744;7.086;2023-07-08T09:43:34;30.00;62.70
15765;DHT22;7983;50.744;7.086;2023-07-08T09:46:03;30.10;63.00
15765;DHT22;7983;50.744;7.086;2023-07-08T09:48:35;30.20;62.80
15765;DHT22;7983;50.744;7.086;2023-07-08T09:51:02;30.30;62.80
15765;DHT22;7983;50.744;7.086;2023-07-08T09:53:28;30.40;63.20
15765;DHT22;7983;50.744;7.086;2023-07-08T09:55:57;30.40;62.70
15765;DHT22;7983;50.744;7.086;2023-07-08T09:58:31;30.50;62.00
15765;DHT22;7983;50.744;7.086;2023-07-08T10:01:05;30.60;61.00
15765;DHT22;7983;50.744;7.086;2023-07-08T10:03:37;30.70;61.90
15765;DHT22;7983;50.744;7.086;2023-07-08T10:06:10;30.80;61.80
15765;DHT22;7983;50.744;7.086;2023-07-08T10:08:42;30.90;62.60
15765;DHT22;7983;50.744;7.086;2023-07-08T10:11:20;31.00;61.70
15765;DHT22;7983;50.744;7.086;2023-07-08T10:13:50;31.00;61.70
15765;DHT22;7983;50.744;7.086;2023-07-08T10:16:29;31.20;61.20
15765;DHT22;7983;50.744;7.086;2023-07-08T10:18:57;31.20;60.80
15765;DHT22;7983;50.744;7.086;2023-07-08T10:27:08;31.50;60.90
15765;DHT22;7983;50.744;7.086;2023-07-08T10:35:32;31.80;59.50
15765;DHT22;7983;50.744;7.086;2023-07-08T10:40:48;31.90;59.10
15765;DHT22;7983;50.744;7.086;2023-07-08T11:00:24;33.40;57.40
15765;DHT22;7983;50.744;7.086;2023-07-08T11:07:44;34.10;57.20
15765;DHT22;7983;50.744;7.086;2023-07-08T11:13:09;34.50;56.00
15765;DHT22;7983;50.744;7.086;2023-07-08T11:15:50;34.70;55.40
15765;DHT22;7983;50.744;7.086;2023-07-08T11:26:23;35.10;53.40
15765;DHT22;7983;50.744;7.086;2023-07-08T11:28:56;35.20;53.90
15765;DHT22;7983;50.744;7.086;2023-07-08T11:31:23;35.30;53.70
15765;DHT22;7983;50.744;7.086;2023-07-08T11:33:50;35.40;53.20
15765;DHT22;7983;50.744;7.086;2023-07-08T11:36:21;35.50;52.90
15765;DHT22;7983;50.744;7.086;2023-07-08T11:38:50;35.50;52.50
15765;DHT22;7983;50.744;7.086;2023-07-08T11:41:19;35.70;52.50
15765;DHT22;7983;50.744;7.086;2023-07-08T11:43:53;35.70;52.10
15765;DHT22;7983;50.744;7.086;2023-07-08T11:46:32;35.80;51.50
15765;DHT22;7983;50.744;7.086;2023-07-08T11:49:12;35.90;51.10
15765;DHT22;7983;50.744;7.086;2023-07-08T11:51:43;36.00;50.90
15765;DHT22;7983;50.744;7.086;2023-07-08T11:56:59;36.20;51.00
15765;DHT22;7983;50.744;7.086;2023-07-08T11:59:26;36.30;48.80
15765;DHT22;7983;50.744;7.086;2023-07-08T12:02:02;36.40;49.80
15765;DHT22;7983;50.744;7.086;2023-07-08T12:04:31;36.40;48.70
15765;DHT22;7983;50.744;7.086;2023-07-08T12:09:59;36.50;49.10
15765;DHT22;7983;50.744;7.086;2023-07-08T12:12:33;36.60;48.50
15765;DHT22;7983;50.744;7.086;2023-07-08T12:15:19;36.60;48.00
15765;DHT22;7983;50.744;7.086;2023-07-08T12:17:49;36.70;48.00
15765;DHT22;7983;50.744;7.086;2023-07-08T12:22:52;36.80;47.80
15765;DHT22;7983;50.744;7.086;2023-07-08T12:25:26;36.90;48.70
15765;DHT22;7983;50.744;7.086;2023-07-08T12:27:52;37.00;47.80
15765;DHT22;7983;50.744;7.086;2023-07-08T12:30:20;37.10;47.80
15765;DHT22;7983;50.744;7.086;2023-07-08T12:32:48;37.20;47.70
15765;DHT22;7983;50.744;7.086;2023-07-08T12:35:28;37.40;47.20
15765;DHT22;7983;50.744;7.086;2023-07-08T12:37:58;37.50;46.30
15765;DHT22;7983;50.744;7.086;2023-07-08T12:40:26;37.50;46.60
15765;DHT22;7983;50.744;7.086;2023-07-08T12:42:53;37.60;47.00
15765;DHT22;7983;50.744;7.086;2023-07-08T12:45:21;37.70;46.90
15765;DHT22;7983;50.744;7.086;2023-07-08T12:47:53;37.80;46.40
15765;DHT22;7983;50.744;7.086;2023-07-08T12:50:19;37.90;45.80
15765;DHT22;7983;50.744;7.086;2023-07-08T12:52:47;37.90;45.60
15765;DHT22;7983;50.744;7.086;2023-07-08T12:55:16;38.00;45.50
15765;DHT22;7983;50.744;7.086;2023-07-08T12:57:44;38.00;45.50
15765;DHT22;7983;50.744;7.086;2023-07-08T13:00:25;38.10;45.70
15765;DHT22;7983;50.744;7.086;2023-07-08T13:03:13;38.00;44.80
15765;DHT22;7983;50.744;7.086;2023-07-08T13:05:44;38.10;44.20
15765;DHT22;7983;50.744;7.086;2023-07-08T13:08:14;38.10;45.40
15765;DHT22;7983;50.744;7.086;2023-07-08T13:10:40;38.30;45.10
15765;DHT22;7983;50.744;7.086;2023-07-08T13:13:11;38.30;45.00
15765;DHT22;7983;50.744;7.086;2023-07-08T13:15:42;38.40;45.00
15765;DHT22;7983;50.744;7.086;2023-07-08T13:18:16;38.50;44.90
15765;DHT22;7983;50.744;7.086;2023-07-08T13:20:52;38.60;44.70
15765;DHT22;7983;50.744;7.086;2023-07-08T13:23:28;38.60;44.60
15765;DHT22;7983;50.744;7.086;2023-07-08T13:25:54;38.70;44.10
15765;DHT22;7983;50.744;7.086;2023-07-08T13:30:56;38.90;43.60
15765;DHT22;7983;50.744;7.086;2023-07-08T13:33:29;38.90;43.40
15765;DHT22;7983;50.744;7.086;2023-07-08T13:35:57;38.90;43.50
15765;DHT22;7983;50.744;7.086;2023-07-08T13:38:32;39.00;43.50
15765;DHT22;7983;50.744;7.086;2023-07-08T13:41:04;39.10;42.80
15765;DHT22;7983;50.744;7.086;2023-07-08T13:43:35;39.10;42.80
15765;DHT22;7983;50.744;7.086;2023-07-08T13:46:01;39.10;43.00
15765;DHT22;7983;50.744;7.086;2023-07-08T13:48:28;39.00;43.00
15765;DHT22;7983;50.744;7.086;2023-07-08T13:51:02;39.10;43.10
15765;DHT22;7983;50.744;7.086;2023-07-08T13:53:48;39.10;42.50
15765;DHT22;7983;50.744;7.086;2023-07-08T13:56:25;39.20;42.30
15765;DHT22;7983;50.744;7.086;2023-07-08T13:58:59;39.30;42.60
15765;DHT22;7983;50.744;7.086;2023-07-08T14:01:26;39.30;42.70
15765;DHT22;7983;50.744;7.086;2023-07-08T14:03:55;39.40;42.40
15765;DHT22;7983;50.744;7.086;2023-07-08T14:06:24;39.40;42.00
15765;DHT22;7983;50.744;7.086;2023-07-08T14:08:54;39.40;41.90
15765;DHT22;7983;50.744;7.086;2023-07-08T14:11:22;39.40;42.00
15765;DHT22;7983;50.744;7.086;2023-07-08T14:13:52;39.40;42.00
15765;DHT22;7983;50.744;7.086;2023-07-08T14:18:47;39.50;42.10
15765;DHT22;7983;50.744;7.086;2023-07-08T14:21:15;39.60;42.20
15765;DHT22;7983;50.744;7.086;2023-07-08T14:23:43;39.60;42.00
15765;DHT22;7983;50.744;7.086;2023-07-08T14:26:12;39.70;42.10
15765;DHT22;7983;50.744;7.086;2023-07-08T14:28:38;39.70;41.80
15765;DHT22;7983;50.744;7.086;2023-07-08T14:31:15;39.70;41.90
15765;DHT22;7983;50.744;7.086;2023-07-08T14:33:42;39.80;41.70
15765;DHT22;7983;50.744;7.086;2023-07-08T14:36:13;39.80;41.80
15765;DHT22;7983;50.744;7.086;2023-07-08T14:38:40;39.90;41.50
15765;DHT22;7983;50.744;7.086;2023-07-08T14:41:06;39.80;41.50
15765;DHT22;7983;50.744;7.086;2023-07-08T14:43:34;39.80;41.40
15765;DHT22;7983;50.744;7.086;2023-07-08T14:46:02;39.80;41.50
15765;DHT22;7983;50.744;7.086;2023-07-08T14:48:32;39.80;41.20
15765;DHT22;7983;50.744;7.086;2023-07-08T14:50:58;39.80;41.20
15765;DHT22;7983;50.744;7.086;2023-07-08T14:53:24;39.90;41.40
15765;DHT22;7983;50.744;7.086;2023-07-08T14:55:52;39.90;41.30
15765;DHT22;7983;50.744;7.086;2023-07-08T15:00:50;39.90;41.10
15765;DHT22;7983;50.744;7.086;2023-07-08T15:03:16;40.00;41.20
15765;DHT22;7983;50.744;7.086;2023-07-08T15:05:49;40.00;41.00
15765;DHT22;7983;50.744;7.086;2023-07-08T15:08:19;40.00;41.10
15765;DHT22;7983;50.744;7.086;2023-07-08T15:10:50;40.00;40.90
15765;DHT22;7983;50.744;7.086;2023-07-08T15:13:19;39.90;40.40
15765;DHT22;7983;50.744;7.086;2023-07-08T15:15:48;39.70;40.40
15765;DHT22;7983;50.744;7.086;2023-07-08T15:18:16;39.40;40.40
15765;DHT22;7983;50.744;7.086;2023-07-08T15:20:43;39.10;40.30
15765;DHT22;7983;50.744;7.086;2023-07-08T15:23:11;38.80;40.40
15765;DHT22;7983;50.744;7.086;2023-07-08T15:25:39;38.50;40.50
15765;DHT22;7983;50.744;7.086;2023-07-08T15:28:18;38.20;40.80
15765;DHT22;7983;50.744;7.086;2023-07-08T15:30:44;38.00;40.50
15765;DHT22;7983;50.744;7.086;2023-07-08T15:33:13;37.70;40.70
15765;DHT22;7983;50.744;7.086;2023-07-08T15:35:39;37.50;40.90
15765;DHT22;7983;50.744;7.086;2023-07-08T15:38:08;37.30;41.10
15765;DHT22;7983;50.744;7.086;2023-07-08T15:40:34;37.20;41.40
15765;DHT22;7983;50.744;7.086;2023-07-08T15:43:05;37.10;41.40
15765;DHT22;7983;50.744;7.086;2023-07-08T15:45:37;37.00;42.20
15765;DHT22;7983;50.744;7.086;2023-07-08T15:48:04;36.90;41.80
15765;DHT22;7983;50.744;7.086;2023-07-08T15:50:30;37.00;42.40
15765;DHT22;7983;50.744;7.086;2023-07-08T15:52:55;37.10;42.50
15765;DHT22;7983;50.744;7.086;2023-07-08T15:55:30;37.20;42.20
15765;DHT22;7983;50.744;7.086;2023-07-08T15:58:28;37.20;42.00
15765;DHT22;7983;50.744;7.086;2023-07-08T16:00:55;37.30;42.30
15765;DHT22;7983;50.744;7.086;2023-07-08T16:03:28;37.30;42.50
15765;DHT22;7983;50.744;7.086;2023-07-08T16:05:55;37.30;42.10
15765;DHT22;7983;50.744;7.086;2023-07-08T16:08:22;37.30;42.30
15765;DHT22;7983;50.744;7.086;2023-07-08T16:10:57;37.30;42.40
15765;DHT22;7983;50.744;7.086;2023-07-08T16:13:26;37.30;42.60
15765;DHT22;7983;50.744;7.086;2023-07-08T16:15:55;37.30;42.80
15765;DHT22;7983;50.744;7.086;2023-07-08T16:18:21;37.40;43.10
15765;DHT22;7983;50.744;7.086;2023-07-08T16:20:49;37.20;43.10
15765;DHT22;7983;50.744;7.086;2023-07-08T16:23:15;37.10;43.30
15765;DHT22;7983;50.744;7.086;2023-07-08T16:25:49;37.00;43.20
15765;DHT22;7983;50.744;7.086;2023-07-08T16:28:22;36.80;43.50
15765;DHT22;7983;50.744;7.086;2023-07-08T16:30:49;36.70;43.30
15765;DHT22;7983;50.744;7.086;2023-07-08T16:33:15;36.50;43.30
15765;DHT22;7983;50.744;7.086;2023-07-08T16:35:41;36.40;43.30
15765;DHT22;7983;50.744;7.086;2023-07-08T16:38:07;36.30;43.20
15765;DHT22;7983;50.744;7.086;2023-07-08T16:40:33;36.10;43.20
15765;DHT22;7983;50.744;7.086;2023-07-08T16:42:58;36.00;43.50
15765;DHT22;7983;50.744;7.086;2023-07-08T16:45:25;35.90;43.60
15765;DHT22;7983;50.744;7.086;2023-07-08T16:47:53;35.80;43.60
15765;DHT22;7983;50.744;7.086;2023-07-08T16:50:23;35.70;43.90
15765;DHT22;7983;50.744;7.086;2023-07-08T16:52:50;35.60;44.40
15765;DHT22;7983;50.744;7.086;2023-07-08T16:55:19;35.50;44.60
15765;DHT22;7983;50.744;7.086;2023-07-08T16:57:46;35.40;44.60
15765;DHT22;7983;50.744;7.086;2023-07-08T17:00:17;35.30;44.30
15765;DHT22;7983;50.744;7.086;2023-07-08T17:02:46;35.20;44.10
15765;DHT22;7983;50.744;7.086;2023-07-08T17:05:24;35.10;43.60
15765;DHT22;7983;50.744;7.086;2023-07-08T17:07:54;34.90;43.50
15765;DHT22;7983;50.744;7.086;2023-07-08T17:10:20;34.80;43.70
15765;DHT22;7983;50.744;7.086;2023-07-08T17:12:47;34.50;44.30
15765;DHT22;7983;50.744;7.086;2023-07-08T17:15:13;34.10;44.90